Time,TemperatureF,DewpointF,PressureIn,WindDirection,WindDirectionDegrees,WindSpeedMPH,WindSpeedGustMPH,Humidity,HourlyPrecipIn,Conditions,Clouds,dailyrainin,SolarRadiationWatts/m^2,SoftwareType,DateUTC
2013-05-01 00:00:00,67.0,56.0,26.91,East,98,3.0,-999.0,69,-99.99,,,-99.99,0.000000,,2013-05-01 05:00:00,
2013-05-01 00:52:00,67.0,56.0,26.91,East,98,3.0,-999.0,69,-99.99,,,-99.99,0.000000,,2013-05-01 05:52:00,
2013-05-01 03:00:00,65.0,58.0,27.01,ENE,74,6.0,-999.0,77,-99.99,,,-99.99,0.000000,,2013-05-01 08:00:00,
2013-05-01 03:53:00,65.0,58.0,27.01,ENE,74,6.0,-999.0,77,-99.99,,,-99.99,0.000000,,2013-05-01 08:53:00,
2013-05-01 04:00:00,64.0,58.0,26.93,ENE,78,5.0,-999.0,81,-99.99,,,-99.99,0.000000,,2013-05-01 09:00:00,
2013-05-01 04:53:00,64.0,58.0,26.93,ENE,78,5.0,-999.0,81,-99.99,,,-99.99,0.000000,,2013-05-01 09:53:00,
2013-05-01 05:00:00,64.0,58.0,27.05,East,90,6.0,-999.0,82,-99.99,,,-99.99,0.000000,,2013-05-01 10:00:00,
2013-05-01 05:53:00,64.0,58.0,27.05,East,90,6.0,-999.0,82,-99.99,,,-99.99,0.000000,,2013-05-01 10:53:00,
2013-05-01 06:00:00,63.0,58.0,27.07,East,82,6.0,-999.0,83,-99.99,,,-99.99,0.930000,,2013-05-01 11:00:00,
2013-05-01 06:52:00,63.0,58.0,27.07,East,82,6.0,-999.0,83,-99.99,,,-99.99,0.930000,,2013-05-01 11:52:00,
2013-05-01 07:00:00,64.0,58.0,27.00,East,88,6.0,-999.0,81,-99.99,,,-99.99,42.910000,,2013-05-01 12:00:00,
2013-05-01 07:52:00,64.0,58.0,27.00,East,88,6.0,-999.0,81,-99.99,,,-99.99,42.910000,,2013-05-01 12:52:00,
2013-05-01 08:00:00,65.0,58.0,27.02,East,93,7.0,-999.0,77,-99.99,,,-99.99,154.300003,,2013-05-01 13:00:00,
2013-05-01 08:52:00,65.0,58.0,27.02,East,93,7.0,-999.0,77,-99.99,,,-99.99,154.300003,,2013-05-01 13:52:00,
2013-05-01 09:00:00,67.0,57.0,26.97,East,96,7.0,-999.0,71,-99.99,,,-99.99,310.799988,,2013-05-01 14:00:00,
2013-05-01 09:52:00,67.0,57.0,26.97,East,96,7.0,-999.0,71,-99.99,,,-99.99,310.799988,,2013-05-01 14:52:00,
2013-05-01 10:00:00,68.0,57.0,27.03,East,91,7.0,-999.0,68,-99.99,,,-99.99,429.299988,,2013-05-01 15:00:00,
2013-05-01 10:53:00,68.0,57.0,27.03,East,91,7.0,-999.0,68,-99.99,,,-99.99,429.299988,,2013-05-01 15:53:00,
2013-05-01 11:00:00,70.0,57.0,27.07,East,98,6.0,-999.0,64,-99.99,,,-99.99,509.399994,,2013-05-01 16:00:00,
2013-05-01 11:53:00,70.0,57.0,27.07,East,98,6.0,-999.0,64,-99.99,,,-99.99,509.399994,,2013-05-01 16:53:00,
2013-05-01 12:00:00,71.0,57.0,27.14,East,100,5.0,-999.0,61,-99.99,,,-99.99,609.400024,,2013-05-01 17:00:00,
2013-05-01 12:52:00,71.0,57.0,27.14,East,100,5.0,-999.0,61,-99.99,,,-99.99,609.400024,,2013-05-01 17:52:00,
2013-05-01 13:00:00,71.0,57.0,27.02,ESE,111,5.0,-999.0,61,-99.99,,,-99.99,485.399994,,2013-05-01 18:00:00,
2013-05-01 13:52:00,71.0,57.0,27.02,ESE,111,5.0,-999.0,61,-99.99,,,-99.99,485.399994,,2013-05-01 18:52:00,
2013-05-01 14:00:00,73.0,58.0,26.91,East,97,5.0,-999.0,59,-99.99,,,-99.99,531.099976,,2013-05-01 19:00:00,
2013-05-01 14:52:00,73.0,58.0,26.91,East,97,5.0,-999.0,59,-99.99,,,-99.99,531.099976,,2013-05-01 19:52:00,
2013-05-01 15:00:00,72.0,56.0,27.02,ESE,112,5.0,-999.0,57,-99.99,,,-99.99,482.000000,,2013-05-01 20:00:00,
2013-05-01 15:52:00,72.0,56.0,27.02,ESE,112,5.0,-999.0,57,-99.99,,,-99.99,482.000000,,2013-05-01 20:52:00,
2013-05-01 19:00:00,67.0,56.0,26.98,East,80,2.0,-999.0,69,-99.99,,,-99.99,47.369999,,2013-05-02 00:00:00,
2013-05-01 19:52:00,67.0,56.0,26.98,East,80,2.0,-999.0,69,-99.99,,,-99.99,47.369999,,2013-05-02 00:52:00,
2013-05-01 20:00:00,66.0,55.0,26.92,East,82,2.0,-999.0,69,-99.99,,,-99.99,4.710000,,2013-05-02 01:00:00,
2013-05-01 20:52:00,66.0,55.0,26.92,East,82,2.0,-999.0,69,-99.99,,,-99.99,4.710000,,2013-05-02 01:52:00,
2013-05-01 21:00:00,65.0,54.0,27.00,ENE,71,4.0,-999.0,67,-99.99,,,-99.99,0.000000,,2013-05-02 02:00:00,
2013-05-01 22:00:00,64.0,52.0,27.18,ENE,78,6.0,-999.0,64,-99.99,,,-99.99,0.000000,,2013-05-02 03:00:00,
2013-05-01 22:53:00,64.0,52.0,27.18,ENE,78,6.0,-999.0,64,-99.99,,,-99.99,0.000000,,2013-05-02 03:53:00,
2013-05-01 23:00:00,64.0,51.0,27.04,ENE,77,7.0,-999.0,64,-99.99,,,-99.99,0.000000,,2013-05-02 04:00:00,
2013-05-01 23:52:00,64.0,51.0,27.04,ENE,77,7.0,-999.0,64,-99.99,,,-99.99,0.000000,,2013-05-02 04:52:00,